sensor_id;sensor_type;location;lat;lon;timestamp;P1;durP1;ratioP1;P2;durP2;ratioP2
25435;SDS011;13363;52.772;-3.890;2022-12-18T00:00:09;3.57;;;1.90;;
25435;SDS011;13363;52.772;-3.890;2022-12-18T00:02:35;3.70;;;1.60;;
25435;SDS011;13363;52.772;-3.890;2022-12-18T00:05:01;1.77;;;1.67;;
25435;SDS011;13363;52.772;-3.890;2022-12-18T00:07:26;2.03;;;1.70;;
25435;SDS011;13363;52.772;-3.890;2022-12-18T00:09:52;2.60;;;2.40;;
25435;SDS011;13363;52.772;-3.890;2022-12-18T00:12:18;2.73;;;1.70;;
25435;SDS011;13363;52.772;-3.890;2022-12-18T00:14:44;2.07;;;1.87;;
25435;SDS011;13363;52.772;-3.890;2022-12-18T00:17:10;2.30;;;1.53;;
25435;SDS011;13363;52.772;-3.890;2022-12-18T00:19:36;5.23;;;2.00;;
25435;SDS011;13363;52.772;-3.890;2022-12-18T00:22:01;4.53;;;2.17;;
25435;SDS011;13363;52.772;-3.890;2022-12-18T00:24:27;2.50;;;1.60;;
25435;SDS011;13363;52.772;-3.890;2022-12-18T00:26:53;1.70;;;1.60;;
25435;SDS011;13363;52.772;-3.890;2022-12-18T00:29:19;3.13;;;1.77;;
25435;SDS011;13363;52.772;-3.890;2022-12-18T00:31:45;1.87;;;1.40;;
25435;SDS011;13363;52.772;-3.890;2022-12-18T00:34:11;1.60;;;1.50;;
25435;SDS011;13363;52.772;-3.890;2022-12-18T00:36:38;2.10;;;1.83;;
25435;SDS011;13363;52.772;-3.890;2022-12-18T00:39:06;2.77;;;1.87;;
25435;SDS011;13363;52.772;-3.890;2022-12-18T00:41:32;1.97;;;1.87;;
25435;SDS011;13363;52.772;-3.890;2022-12-18T00:44:16;2.00;;;1.90;;
25435;SDS011;13363;52.772;-3.890;2022-12-18T00:46:43;1.70;;;1.57;;
25435;SDS011;13363;52.772;-3.890;2022-12-18T00:49:10;2.17;;;2.00;;
25435;SDS011;13363;52.772;-3.890;2022-12-18T00:51:39;2.07;;;1.90;;
25435;SDS011;13363;52.772;-3.890;2022-12-18T00:54:05;2.90;;;1.90;;
25435;SDS011;13363;52.772;-3.890;2022-12-18T00:56:31;2.33;;;2.10;;
25435;SDS011;13363;52.772;-3.890;2022-12-18T00:58:57;3.83;;;2.27;;
25435;SDS011;13363;52.772;-3.890;2022-12-18T01:01:23;2.53;;;2.37;;
25435;SDS011;13363;52.772;-3.890;2022-12-18T01:03:48;4.50;;;2.00;;
25435;SDS011;13363;52.772;-3.890;2022-12-18T01:06:15;2.03;;;1.93;;
25435;SDS011;13363;52.772;-3.890;2022-12-18T01:08:41;2.63;;;2.20;;
25435;SDS011;13363;52.772;-3.890;2022-12-18T01:11:08;10.50;;;1.87;;
25435;SDS011;13363;52.772;-3.890;2022-12-18T01:13:39;2.50;;;2.27;;
25435;SDS011;13363;52.772;-3.890;2022-12-18T01:16:05;2.20;;;2.00;;
25435;SDS011;13363;52.772;-3.890;2022-12-18T01:18:31;1.97;;;1.87;;
25435;SDS011;13363;52.772;-3.890;2022-12-18T01:20:57;2.27;;;2.10;;
25435;SDS011;13363;52.772;-3.890;2022-12-18T01:23:26;2.57;;;1.77;;
25435;SDS011;13363;52.772;-3.890;2022-12-18T01:25:52;3.80;;;1.87;;
25435;SDS011;13363;52.772;-3.890;2022-12-18T01:28:18;6.40;;;2.17;;
25435;SDS011;13363;52.772;-3.890;2022-12-18T01:30:44;1.50;;;1.40;;
25435;SDS011;13363;52.772;-3.890;2022-12-18T01:33:10;1.80;;;1.70;;
25435;SDS011;13363;52.772;-3.890;2022-12-18T01:35:44;2.10;;;1.73;;
25435;SDS011;13363;52.772;-3.890;2022-12-18T01:38:10;3.13;;;1.60;;
25435;SDS011;13363;52.772;-3.890;2022-12-18T01:40:36;3.77;;;1.40;;
25435;SDS011;13363;52.772;-3.890;2022-12-18T01:43:02;1.50;;;1.40;;
25435;SDS011;13363;52.772;-3.890;2022-12-18T01:45:29;1.90;;;1.30;;
25435;SDS011;13363;52.772;-3.890;2022-12-18T01:47:57;1.83;;;1.73;;
25435;SDS011;13363;52.772;-3.890;2022-12-18T01:50:40;1.70;;;1.60;;
25435;SDS011;13363;52.772;-3.890;2022-12-18T01:55:40;1.73;;;1.63;;
25435;SDS011;13363;52.772;-3.890;2022-12-18T01:58:13;1.70;;;1.60;;
25435;SDS011;13363;52.772;-3.890;2022-12-18T02:00:41;5.10;;;2.00;;
25435;SDS011;13363;52.772;-3.890;2022-12-18T02:03:07;1.70;;;1.50;;
25435;SDS011;13363;52.772;-3.890;2022-12-18T02:19:01;2.07;;;1.13;;
25435;SDS011;13363;52.772;-3.890;2022-12-18T02:21:45;2.37;;;1.03;;
25435;SDS011;13363;52.772;-3.890;2022-12-18T02:27:04;1.43;;;1.33;;
25435;SDS011;13363;52.772;-3.890;2022-12-18T02:32:17;2.73;;;1.80;;
25435;SDS011;13363;52.772;-3.890;2022-12-18T02:34:51;2.63;;;2.33;;
25435;SDS011;13363;52.772;-3.890;2022-12-18T02:37:19;2.40;;;2.20;;
25435;SDS011;13363;52.772;-3.890;2022-12-18T02:39:46;3.20;;;2.77;;
25435;SDS011;13363;52.772;-3.890;2022-12-18T02:42:14;2.87;;;2.67;;
25435;SDS011;13363;52.772;-3.890;2022-12-18T02:44:45;2.20;;;1.83;;
25435;SDS011;13363;52.772;-3.890;2022-12-18T02:47:13;3.33;;;2.10;;
25435;SDS011;13363;52.772;-3.890;2022-12-18T03:01:11;2.90;;;2.70;;
25435;SDS011;13363;52.772;-3.890;2022-12-18T03:03:58;2.83;;;2.63;;
25435;SDS011;13363;52.772;-3.890;2022-12-18T03:06:28;3.10;;;2.90;;
25435;SDS011;13363;52.772;-3.890;2022-12-18T03:08:59;3.90;;;3.20;;
25435;SDS011;13363;52.772;-3.890;2022-12-18T03:11:30;3.90;;;3.40;;
25435;SDS011;13363;52.772;-3.890;2022-12-18T03:14:18;2.80;;;2.60;;
25435;SDS011;13363;52.772;-3.890;2022-12-18T03:16:47;4.87;;;3.63;;
25435;SDS011;13363;52.772;-3.890;2022-12-18T03:19:18;6.33;;;4.53;;
25435;SDS011;13363;52.772;-3.890;2022-12-18T03:21:48;7.57;;;4.00;;
25435;SDS011;13363;52.772;-3.890;2022-12-18T03:24:17;4.20;;;3.90;;
25435;SDS011;13363;52.772;-3.890;2022-12-18T03:26:46;6.70;;;4.13;;
25435;SDS011;13363;52.772;-3.890;2022-12-18T03:29:18;3.40;;;2.60;;
25435;SDS011;13363;52.772;-3.890;2022-12-18T03:31:55;3.87;;;3.47;;
25435;SDS011;13363;52.772;-3.890;2022-12-18T03:34:29;5.57;;;3.70;;
25435;SDS011;13363;52.772;-3.890;2022-12-18T03:36:57;3.63;;;3.33;;
25435;SDS011;13363;52.772;-3.890;2022-12-18T03:39:23;3.27;;;2.97;;
25435;SDS011;13363;52.772;-3.890;2022-12-18T03:41:51;2.13;;;1.90;;
25435;SDS011;13363;52.772;-3.890;2022-12-18T03:44:29;5.27;;;2.47;;
25435;SDS011;13363;52.772;-3.890;2022-12-18T03:54:36;2.90;;;2.70;;
25435;SDS011;13363;52.772;-3.890;2022-12-18T03:57:11;2.13;;;1.93;;
25435;SDS011;13363;52.772;-3.890;2022-12-18T03:59:43;2.57;;;2.07;;
25435;SDS011;13363;52.772;-3.890;2022-12-18T04:02:11;2.60;;;2.40;;
25435;SDS011;13363;52.772;-3.890;2022-12-18T04:04:37;3.37;;;2.77;;
25435;SDS011;13363;52.772;-3.890;2022-12-18T04:07:05;4.13;;;2.87;;
25435;SDS011;13363;52.772;-3.890;2022-12-18T04:09:32;3.13;;;2.93;;
25435;SDS011;13363;52.772;-3.890;2022-12-18T04:11:59;3.20;;;2.90;;
25435;SDS011;13363;52.772;-3.890;2022-12-18T04:14:25;3.03;;;2.83;;
25435;SDS011;13363;52.772;-3.890;2022-12-18T04:16:51;3.73;;;2.67;;
25435;SDS011;13363;52.772;-3.890;2022-12-18T04:19:17;2.93;;;2.70;;
25435;SDS011;13363;52.772;-3.890;2022-12-18T04:21:43;2.97;;;2.70;;
25435;SDS011;13363;52.772;-3.890;2022-12-18T04:24:08;2.33;;;2.13;;
25435;SDS011;13363;52.772;-3.890;2022-12-18T04:26:34;2.90;;;2.63;;
25435;SDS011;13363;52.772;-3.890;2022-12-18T04:29:00;2.70;;;2.50;;
25435;SDS011;13363;52.772;-3.890;2022-12-18T04:31:26;4.77;;;2.30;;
25435;SDS011;13363;52.772;-3.890;2022-12-18T04:33:52;2.57;;;2.37;;
25435;SDS011;13363;52.772;-3.890;2022-12-18T04:36:17;2.97;;;2.77;;
25435;SDS011;13363;52.772;-3.890;2022-12-18T04:38:43;4.97;;;2.97;;
25435;SDS011;13363;52.772;-3.890;2022-12-18T04:41:09;4.87;;;2.67;;
25435;SDS011;13363;52.772;-3.890;2022-12-18T04:43:37;3.73;;;3.13;;
25435;SDS011;13363;52.772;-3.890;2022-12-18T04:46:04;2.37;;;2.20;;
25435;SDS011;13363;52.772;-3.890;2022-12-18T04:48:30;2.90;;;2.57;;
25435;SDS011;13363;52.772;-3.890;2022-12-18T04:50:56;2.57;;;2.47;;
25435;SDS011;13363;52.772;-3.890;2022-12-18T04:53:22;3.93;;;2.60;;
25435;SDS011;13363;52.772;-3.890;2022-12-18T04:55:48;3.30;;;2.63;;
25435;SDS011;13363;52.772;-3.890;2022-12-18T04:58:14;2.53;;;2.33;;
25435;SDS011;13363;52.772;-3.890;2022-12-18T05:00:40;2.20;;;2.10;;
25435;SDS011;13363;52.772;-3.890;2022-12-18T05:03:06;2.60;;;2.30;;
25435;SDS011;13363;52.772;-3.890;2022-12-18T05:05:33;2.83;;;2.40;;
25435;SDS011;13363;52.772;-3.890;2022-12-18T05:08:00;2.40;;;2.30;;
25435;SDS011;13363;52.772;-3.890;2022-12-18T05:10:25;2.67;;;2.13;;
25435;SDS011;13363;52.772;-3.890;2022-12-18T05:12:51;2.40;;;2.20;;
25435;SDS011;13363;52.772;-3.890;2022-12-18T05:15:23;3.60;;;2.50;;
25435;SDS011;13363;52.772;-3.890;2022-12-18T05:17:56;2.40;;;2.20;;
25435;SDS011;13363;52.772;-3.890;2022-12-18T05:20:23;5.17;;;2.73;;
25435;SDS011;13363;52.772;-3.890;2022-12-18T05:22:50;2.70;;;2.50;;
25435;SDS011;13363;52.772;-3.890;2022-12-18T05:25:16;2.50;;;2.27;;
25435;SDS011;13363;52.772;-3.890;2022-12-18T05:27:42;3.00;;;2.70;;
25435;SDS011;13363;52.772;-3.890;2022-12-18T05:30:08;2.97;;;2.57;;
25435;SDS011;13363;52.772;-3.890;2022-12-18T05:32:35;2.97;;;2.47;;
25435;SDS011;13363;52.772;-3.890;2022-12-18T05:35:01;2.60;;;2.17;;
25435;SDS011;13363;52.772;-3.890;2022-12-18T05:37:26;3.80;;;2.57;;
25435;SDS011;13363;52.772;-3.890;2022-12-18T05:39:52;3.40;;;2.57;;
25435;SDS011;13363;52.772;-3.890;2022-12-18T05:42:18;2.33;;;2.20;;
25435;SDS011;13363;52.772;-3.890;2022-12-18T05:44:44;3.83;;;2.63;;
25435;SDS011;13363;52.772;-3.890;2022-12-18T05:47:10;2.43;;;2.27;;
25435;SDS011;13363;52.772;-3.890;2022-12-18T05:49:36;2.93;;;2.20;;
25435;SDS011;13363;52.772;-3.890;2022-12-18T05:52:01;2.67;;;2.50;;
25435;SDS011;13363;52.772;-3.890;2022-12-18T05:54:27;3.40;;;2.70;;
25435;SDS011;13363;52.772;-3.890;2022-12-18T05:56:53;2.30;;;2.10;;
25435;SDS011;13363;52.772;-3.890;2022-12-18T05:59:19;2.37;;;2.13;;
25435;SDS011;13363;52.772;-3.890;2022-12-18T06:01:45;5.77;;;2.50;;
25435;SDS011;13363;52.772;-3.890;2022-12-18T06:04:11;2.57;;;2.37;;
25435;SDS011;13363;52.772;-3.890;2022-12-18T06:06:37;3.53;;;2.57;;
25435;SDS011;13363;52.772;-3.890;2022-12-18T06:09:03;4.40;;;2.73;;
25435;SDS011;13363;52.772;-3.890;2022-12-18T06:11:34;2.80;;;2.60;;
25435;SDS011;13363;52.772;-3.890;2022-12-18T06:14:02;2.90;;;2.70;;
25435;SDS011;13363;52.772;-3.890;2022-12-18T06:16:29;2.80;;;2.60;;
25435;SDS011;13363;52.772;-3.890;2022-12-18T06:18:59;2.50;;;2.30;;
25435;SDS011;13363;52.772;-3.890;2022-12-18T06:21:25;3.00;;;2.50;;
25435;SDS011;13363;52.772;-3.890;2022-12-18T06:23:51;2.43;;;2.23;;
25435;SDS011;13363;52.772;-3.890;2022-12-18T06:26:17;2.67;;;2.47;;
25435;SDS011;13363;52.772;-3.890;2022-12-18T06:28:43;2.70;;;2.40;;
25435;SDS011;13363;52.772;-3.890;2022-12-18T06:31:09;2.80;;;2.50;;
25435;SDS011;13363;52.772;-3.890;2022-12-18T06:33:36;2.57;;;2.40;;
25435;SDS011;13363;52.772;-3.890;2022-12-18T06:36:06;7.77;;;2.87;;
25435;SDS011;13363;52.772;-3.890;2022-12-18T06:38:35;2.60;;;2.40;;
25435;SDS011;13363;52.772;-3.890;2022-12-18T06:41:08;2.60;;;2.40;;
25435;SDS011;13363;52.772;-3.890;2022-12-18T06:43:35;3.17;;;2.90;;
25435;SDS011;13363;52.772;-3.890;2022-12-18T06:46:02;3.37;;;3.17;;
25435;SDS011;13363;52.772;-3.890;2022-12-18T06:48:29;3.40;;;3.20;;
25435;SDS011;13363;52.772;-3.890;2022-12-18T06:50:55;7.27;;;3.53;;
25435;SDS011;13363;52.772;-3.890;2022-12-18T06:53:21;3.73;;;3.43;;
25435;SDS011;13363;52.772;-3.890;2022-12-18T06:55:48;4.17;;;3.73;;
25435;SDS011;13363;52.772;-3.890;2022-12-18T06:58:14;4.90;;;3.73;;
25435;SDS011;13363;52.772;-3.890;2022-12-18T07:00:40;3.83;;;3.27;;
25435;SDS011;13363;52.772;-3.890;2022-12-18T07:03:06;3.10;;;2.90;;
25435;SDS011;13363;52.772;-3.890;2022-12-18T07:05:32;4.03;;;3.00;;
25435;SDS011;13363;52.772;-3.890;2022-12-18T07:07:58;4.93;;;3.10;;
25435;SDS011;13363;52.772;-3.890;2022-12-18T07:10:24;5.73;;;3.50;;
25435;SDS011;13363;52.772;-3.890;2022-12-18T07:12:50;5.40;;;3.43;;
25435;SDS011;13363;52.772;-3.890;2022-12-18T07:15:15;4.57;;;4.17;;
25435;SDS011;13363;52.772;-3.890;2022-12-18T07:17:41;3.97;;;3.67;;
25435;SDS011;13363;52.772;-3.890;2022-12-18T07:20:07;7.70;;;4.67;;
25435;SDS011;13363;52.772;-3.890;2022-12-18T07:22:34;4.20;;;3.80;;
25435;SDS011;13363;52.772;-3.890;2022-12-18T07:25:00;4.47;;;3.80;;
25435;SDS011;13363;52.772;-3.890;2022-12-18T07:27:25;4.70;;;3.67;;
25435;SDS011;13363;52.772;-3.890;2022-12-18T07:29:51;6.60;;;4.20;;
25435;SDS011;13363;52.772;-3.890;2022-12-18T07:32:17;5.07;;;4.43;;
25435;SDS011;13363;52.772;-3.890;2022-12-18T07:34:43;4.40;;;4.00;;
25435;SDS011;13363;52.772;-3.890;2022-12-18T07:37:09;4.60;;;4.20;;
25435;SDS011;13363;52.772;-3.890;2022-12-18T07:39:34;4.73;;;4.20;;
25435;SDS011;13363;52.772;-3.890;2022-12-18T07:42:00;4.67;;;3.90;;
25435;SDS011;13363;52.772;-3.890;2022-12-18T07:44:45;5.60;;;4.37;;
25435;SDS011;13363;52.772;-3.890;2022-12-18T07:47:11;6.07;;;4.10;;
25435;SDS011;13363;52.772;-3.890;2022-12-18T07:49:37;4.23;;;3.83;;
25435;SDS011;13363;52.772;-3.890;2022-12-18T07:52:02;4.57;;;4.13;;
25435;SDS011;13363;52.772;-3.890;2022-12-18T07:54:28;4.87;;;3.53;;
25435;SDS011;13363;52.772;-3.890;2022-12-18T07:56:55;4.27;;;3.97;;
25435;SDS011;13363;52.772;-3.890;2022-12-18T07:59:21;4.60;;;3.83;;
25435;SDS011;13363;52.772;-3.890;2022-12-18T08:01:46;4.73;;;4.10;;
25435;SDS011;13363;52.772;-3.890;2022-12-18T08:04:12;5.17;;;3.80;;
25435;SDS011;13363;52.772;-3.890;2022-12-18T08:06:38;5.27;;;4.30;;
25435;SDS011;13363;52.772;-3.890;2022-12-18T08:09:04;4.97;;;4.47;;
25435;SDS011;13363;52.772;-3.890;2022-12-18T08:11:30;4.53;;;4.13;;
25435;SDS011;13363;52.772;-3.890;2022-12-18T08:13:57;4.77;;;4.37;;
25435;SDS011;13363;52.772;-3.890;2022-12-18T08:16:23;4.87;;;4.47;;
25435;SDS011;13363;52.772;-3.890;2022-12-18T08:18:49;6.93;;;4.20;;
25435;SDS011;13363;52.772;-3.890;2022-12-18T08:21:17;5.20;;;4.70;;
25435;SDS011;13363;52.772;-3.890;2022-12-18T08:23:46;4.27;;;3.93;;
25435;SDS011;13363;52.772;-3.890;2022-12-18T08:26:12;5.47;;;4.00;;
25435;SDS011;13363;52.772;-3.890;2022-12-18T08:28:39;4.60;;;4.00;;
25435;SDS011;13363;52.772;-3.890;2022-12-18T08:31:05;4.70;;;4.30;;
25435;SDS011;13363;52.772;-3.890;2022-12-18T08:33:32;5.17;;;4.23;;
25435;SDS011;13363;52.772;-3.890;2022-12-18T08:35:58;4.80;;;4.40;;
25435;SDS011;13363;52.772;-3.890;2022-12-18T08:38:24;4.67;;;4.17;;
25435;SDS011;13363;52.772;-3.890;2022-12-18T08:40:57;4.00;;;3.63;;
25435;SDS011;13363;52.772;-3.890;2022-12-18T08:43:25;5.63;;;4.47;;
25435;SDS011;13363;52.772;-3.890;2022-12-18T08:46:09;6.77;;;4.10;;
25435;SDS011;13363;52.772;-3.890;2022-12-18T08:48:35;4.70;;;4.20;;
25435;SDS011;13363;52.772;-3.890;2022-12-18T08:51:01;4.43;;;4.03;;
25435;SDS011;13363;52.772;-3.890;2022-12-18T08:53:27;4.23;;;3.73;;
25435;SDS011;13363;52.772;-3.890;2022-12-18T08:55:53;4.40;;;3.80;;
25435;SDS011;13363;52.772;-3.890;2022-12-18T08:58:19;4.40;;;4.00;;
25435;SDS011;13363;52.772;-3.890;2022-12-18T09:00:45;6.03;;;3.33;;
25435;SDS011;13363;52.772;-3.890;2022-12-18T09:03:14;4.97;;;4.20;;
25435;SDS011;13363;52.772;-3.890;2022-12-18T09:05:41;4.47;;;3.73;;
25435;SDS011;13363;52.772;-3.890;2022-12-18T09:08:08;4.93;;;3.50;;
25435;SDS011;13363;52.772;-3.890;2022-12-18T09:10:34;5.80;;;4.03;;
25435;SDS011;13363;52.772;-3.890;2022-12-18T09:13:10;4.37;;;3.87;;
25435;SDS011;13363;52.772;-3.890;2022-12-18T09:15:43;4.60;;;4.20;;
25435;SDS011;13363;52.772;-3.890;2022-12-18T09:18:11;6.07;;;4.50;;
25435;SDS011;13363;52.772;-3.890;2022-12-18T09:20:37;5.23;;;4.73;;
25435;SDS011;13363;52.772;-3.890;2022-12-18T09:23:04;7.97;;;5.30;;
25435;SDS011;13363;52.772;-3.890;2022-12-18T09:25:31;6.43;;;4.87;;
25435;SDS011;13363;52.772;-3.890;2022-12-18T09:28:02;7.33;;;5.30;;
25435;SDS011;13363;52.772;-3.890;2022-12-18T09:30:29;9.03;;;6.17;;
25435;SDS011;13363;52.772;-3.890;2022-12-18T09:32:58;8.40;;;6.17;;
25435;SDS011;13363;52.772;-3.890;2022-12-18T09:35:24;7.77;;;6.57;;
25435;SDS011;13363;52.772;-3.890;2022-12-18T09:37:51;8.67;;;6.27;;
25435;SDS011;13363;52.772;-3.890;2022-12-18T09:40:18;6.53;;;5.80;;
25435;SDS011;13363;52.772;-3.890;2022-12-18T09:42:48;8.73;;;6.33;;
25435;SDS011;13363;52.772;-3.890;2022-12-18T09:45:18;9.03;;;6.50;;
25435;SDS011;13363;52.772;-3.890;2022-12-18T09:47:45;9.03;;;6.73;;
25435;SDS011;13363;52.772;-3.890;2022-12-18T09:50:35;8.83;;;7.13;;
25435;SDS011;13363;52.772;-3.890;2022-12-18T09:53:11;8.37;;;6.83;;
25435;SDS011;13363;52.772;-3.890;2022-12-18T09:55:47;9.03;;;6.80;;
25435;SDS011;13363;52.772;-3.890;2022-12-18T10:00:58;10.13;;;7.33;;
25435;SDS011;13363;52.772;-3.890;2022-12-18T10:03:24;9.07;;;6.80;;
25435;SDS011;13363;52.772;-3.890;2022-12-18T10:08:29;9.47;;;7.33;;
25435;SDS011;13363;52.772;-3.890;2022-12-18T10:11:35;9.40;;;7.00;;
25435;SDS011;13363;52.772;-3.890;2022-12-18T10:14:10;9.20;;;6.87;;
25435;SDS011;13363;52.772;-3.890;2022-12-18T10:19:49;6.93;;;6.23;;
25435;SDS011;13363;52.772;-3.890;2022-12-18T10:22:36;9.50;;;6.53;;
25435;SDS011;13363;52.772;-3.890;2022-12-18T10:25:27;6.30;;;5.70;;
25435;SDS011;13363;52.772;-3.890;2022-12-18T10:28:13;8.20;;;6.93;;
25435;SDS011;13363;52.772;-3.890;2022-12-18T10:30:41;7.20;;;6.27;;
25435;SDS011;13363;52.772;-3.890;2022-12-18T10:33:12;8.97;;;6.87;;
25435;SDS011;13363;52.772;-3.890;2022-12-18T10:35:43;8.73;;;6.43;;
25435;SDS011;13363;52.772;-3.890;2022-12-18T10:40:59;10.03;;;6.57;;
25435;SDS011;13363;52.772;-3.890;2022-12-18T10:43:33;7.67;;;5.80;;
25435;SDS011;13363;52.772;-3.890;2022-12-18T10:51:04;8.00;;;6.97;;
25435;SDS011;13363;52.772;-3.890;2022-12-18T10:53:33;8.43;;;6.87;;
25435;SDS011;13363;52.772;-3.890;2022-12-18T10:56:03;8.43;;;7.00;;
25435;SDS011;13363;52.772;-3.890;2022-12-18T10:58:31;7.57;;;6.47;;
25435;SDS011;13363;52.772;-3.890;2022-12-18T11:03:42;6.83;;;6.23;;
25435;SDS011;13363;52.772;-3.890;2022-12-18T11:06:11;7.87;;;6.20;;
25435;SDS011;13363;52.772;-3.890;2022-12-18T11:09:03;10.17;;;7.07;;
25435;SDS011;13363;52.772;-3.890;2022-12-18T11:11:31;7.77;;;5.77;;
25435;SDS011;13363;52.772;-3.890;2022-12-18T11:16:43;7.10;;;6.07;;
25435;SDS011;13363;52.772;-3.890;2022-12-18T11:19:25;8.07;;;7.27;;
25435;SDS011;13363;52.772;-3.890;2022-12-18T11:21:58;6.87;;;5.80;;
25435;SDS011;13363;52.772;-3.890;2022-12-18T11:24:30;7.33;;;6.63;;
25435;SDS011;13363;52.772;-3.890;2022-12-18T11:27:03;7.97;;;6.33;;
25435;SDS011;13363;52.772;-3.890;2022-12-18T11:29:33;9.30;;;7.20;;
25435;SDS011;13363;52.772;-3.890;2022-12-18T11:35:03;11.07;;;6.63;;
25435;SDS011;13363;52.772;-3.890;2022-12-18T11:37:36;7.50;;;6.77;;
25435;SDS011;13363;52.772;-3.890;2022-12-18T11:40:22;6.63;;;5.97;;
25435;SDS011;13363;52.772;-3.890;2022-12-18T11:43:38;6.30;;;5.70;;
25435;SDS011;13363;52.772;-3.890;2022-12-18T11:46:49;7.70;;;6.27;;
25435;SDS011;13363;52.772;-3.890;2022-12-18T11:48:58;6.93;;;6.23;;
25435;SDS011;13363;52.772;-3.890;2022-12-18T11:51:48;5.67;;;5.20;;
25435;SDS011;13363;52.772;-3.890;2022-12-18T11:54:36;6.33;;;5.43;;
25435;SDS011;13363;52.772;-3.890;2022-12-18T11:57:16;5.87;;;5.30;;
25435;SDS011;13363;52.772;-3.890;2022-12-18T12:14:13;5.30;;;4.57;;
25435;SDS011;13363;52.772;-3.890;2022-12-18T12:25:09;4.83;;;4.33;;
25435;SDS011;13363;52.772;-3.890;2022-12-18T12:31:00;4.43;;;4.03;;
25435;SDS011;13363;52.772;-3.890;2022-12-18T12:38:59;3.30;;;3.00;;
25435;SDS011;13363;52.772;-3.890;2022-12-18T12:41:31;3.23;;;3.03;;
25435;SDS011;13363;52.772;-3.890;2022-12-18T12:44:19;3.67;;;3.37;;
25435;SDS011;13363;52.772;-3.890;2022-12-18T12:46:50;3.10;;;2.90;;
25435;SDS011;13363;52.772;-3.890;2022-12-18T12:49:23;3.37;;;3.07;;
25435;SDS011;13363;52.772;-3.890;2022-12-18T12:51:55;3.50;;;3.20;;
25435;SDS011;13363;52.772;-3.890;2022-12-18T12:54:25;3.30;;;3.10;;
25435;SDS011;13363;52.772;-3.890;2022-12-18T12:59:27;3.00;;;2.80;;
25435;SDS011;13363;52.772;-3.890;2022-12-18T13:04:44;3.20;;;3.00;;
25435;SDS011;13363;52.772;-3.890;2022-12-18T13:07:18;3.40;;;3.10;;
25435;SDS011;13363;52.772;-3.890;2022-12-18T13:10:13;3.93;;;3.63;;
25435;SDS011;13363;52.772;-3.890;2022-12-18T13:12:57;3.63;;;3.40;;
25435;SDS011;13363;52.772;-3.890;2022-12-18T13:15:33;3.63;;;3.33;;
25435;SDS011;13363;52.772;-3.890;2022-12-18T13:20:36;3.30;;;3.10;;
25435;SDS011;13363;52.772;-3.890;2022-12-18T13:23:25;2.77;;;2.57;;
25435;SDS011;13363;52.772;-3.890;2022-12-18T13:25:57;3.00;;;2.80;;
25435;SDS011;13363;52.772;-3.890;2022-12-18T13:28:49;3.07;;;2.77;;
25435;SDS011;13363;52.772;-3.890;2022-12-18T13:36:46;2.87;;;2.67;;
25435;SDS011;13363;52.772;-3.890;2022-12-18T13:41:39;3.07;;;2.60;;
25435;SDS011;13363;52.772;-3.890;2022-12-18T13:44:10;2.50;;;2.30;;
25435;SDS011;13363;52.772;-3.890;2022-12-18T13:51:41;2.80;;;2.60;;
25435;SDS011;13363;52.772;-3.890;2022-12-18T13:56:59;2.80;;;2.60;;
25435;SDS011;13363;52.772;-3.890;2022-12-18T13:59:39;2.33;;;2.13;;
25435;SDS011;13363;52.772;-3.890;2022-12-18T14:02:11;2.23;;;2.13;;
25435;SDS011;13363;52.772;-3.890;2022-12-18T14:04:39;1.90;;;1.80;;
25435;SDS011;13363;52.772;-3.890;2022-12-18T14:07:21;1.83;;;1.73;;
25435;SDS011;13363;52.772;-3.890;2022-12-18T14:12:20;2.30;;;2.10;;
25435;SDS011;13363;52.772;-3.890;2022-12-18T14:20:48;2.90;;;1.60;;
25435;SDS011;13363;52.772;-3.890;2022-12-18T14:26:03;1.80;;;1.70;;
25435;SDS011;13363;52.772;-3.890;2022-12-18T14:28:54;1.60;;;1.50;;
25435;SDS011;13363;52.772;-3.890;2022-12-18T14:31:26;1.80;;;1.70;;
25435;SDS011;13363;52.772;-3.890;2022-12-18T14:33:54;1.53;;;1.43;;
25435;SDS011;13363;52.772;-3.890;2022-12-18T14:36:24;1.47;;;1.37;;
25435;SDS011;13363;52.772;-3.890;2022-12-18T14:38:56;1.20;;;1.20;;
25435;SDS011;13363;52.772;-3.890;2022-12-18T14:41:23;1.43;;;1.40;;
25435;SDS011;13363;52.772;-3.890;2022-12-18T14:43:51;1.40;;;1.40;;
25435;SDS011;13363;52.772;-3.890;2022-12-18T14:46:34;1.40;;;1.30;;
25435;SDS011;13363;52.772;-3.890;2022-12-18T14:52:01;1.40;;;1.40;;
25435;SDS011;13363;52.772;-3.890;2022-12-18T14:54:31;1.00;;;1.00;;
25435;SDS011;13363;52.772;-3.890;2022-12-18T14:57:02;1.43;;;1.33;;
25435;SDS011;13363;52.772;-3.890;2022-12-18T14:59:50;1.73;;;1.20;;
25435;SDS011;13363;52.772;-3.890;2022-12-18T15:07:51;0.83;;;0.83;;
25435;SDS011;13363;52.772;-3.890;2022-12-18T15:10:20;1.10;;;1.00;;
25435;SDS011;13363;52.772;-3.890;2022-12-18T15:12:47;1.53;;;0.90;;
25435;SDS011;13363;52.772;-3.890;2022-12-18T15:15:41;0.90;;;0.90;;
25435;SDS011;13363;52.772;-3.890;2022-12-18T15:20:49;0.87;;;0.80;;
25435;SDS011;13363;52.772;-3.890;2022-12-18T15:25:48;0.87;;;0.87;;
25435;SDS011;13363;52.772;-3.890;2022-12-18T15:28:24;0.60;;;0.60;;
25435;SDS011;13363;52.772;-3.890;2022-12-18T15:34:22;0.60;;;0.60;;
25435;SDS011;13363;52.772;-3.890;2022-12-18T15:36:22;0.63;;;0.63;;
25435;SDS011;13363;52.772;-3.890;2022-12-18T15:38:50;0.30;;;0.30;;
25435;SDS011;13363;52.772;-3.890;2022-12-18T15:41:18;0.70;;;0.70;;
25435;SDS011;13363;52.772;-3.890;2022-12-18T15:43:46;0.60;;;0.60;;
25435;SDS011;13363;52.772;-3.890;2022-12-18T15:46:16;0.50;;;0.50;;
25435;SDS011;13363;52.772;-3.890;2022-12-18T15:48:45;0.40;;;0.40;;
25435;SDS011;13363;52.772;-3.890;2022-12-18T15:51:23;0.30;;;0.30;;
25435;SDS011;13363;52.772;-3.890;2022-12-18T15:53:53;0.50;;;0.50;;
25435;SDS011;13363;52.772;-3.890;2022-12-18T15:56:21;0.40;;;0.40;;
25435;SDS011;13363;52.772;-3.890;2022-12-18T15:59:12;0.50;;;0.50;;
25435;SDS011;13363;52.772;-3.890;2022-12-18T16:01:41;0.33;;;0.33;;
25435;SDS011;13363;52.772;-3.890;2022-12-18T16:04:11;0.20;;;0.20;;
25435;SDS011;13363;52.772;-3.890;2022-12-18T16:06:38;0.33;;;0.33;;
25435;SDS011;13363;52.772;-3.890;2022-12-18T16:09:05;0.53;;;0.37;;
25435;SDS011;13363;52.772;-3.890;2022-12-18T16:11:32;0.30;;;0.30;;
25435;SDS011;13363;52.772;-3.890;2022-12-18T16:16:43;0.30;;;0.30;;
25435;SDS011;13363;52.772;-3.890;2022-12-18T16:19:10;0.30;;;0.30;;
25435;SDS011;13363;52.772;-3.890;2022-12-18T16:21:37;0.30;;;0.30;;
25435;SDS011;13363;52.772;-3.890;2022-12-18T16:24:03;0.33;;;0.33;;
25435;SDS011;13363;52.772;-3.890;2022-12-18T16:26:29;0.50;;;0.50;;
25435;SDS011;13363;52.772;-3.890;2022-12-18T16:28:57;0.30;;;0.30;;
25435;SDS011;13363;52.772;-3.890;2022-12-18T16:31:23;0.30;;;0.30;;
25435;SDS011;13363;52.772;-3.890;2022-12-18T16:33:49;0.30;;;0.30;;
25435;SDS011;13363;52.772;-3.890;2022-12-18T16:36:14;0.30;;;0.30;;
25435;SDS011;13363;52.772;-3.890;2022-12-18T16:38:40;0.20;;;0.20;;
25435;SDS011;13363;52.772;-3.890;2022-12-18T16:41:15;0.20;;;0.20;;
25435;SDS011;13363;52.772;-3.890;2022-12-18T16:43:59;0.20;;;0.20;;
25435;SDS011;13363;52.772;-3.890;2022-12-18T16:46:25;0.30;;;0.30;;
25435;SDS011;13363;52.772;-3.890;2022-12-18T16:48:51;0.30;;;0.30;;
25435;SDS011;13363;52.772;-3.890;2022-12-18T16:51:17;0.20;;;0.20;;
25435;SDS011;13363;52.772;-3.890;2022-12-18T16:53:42;0.20;;;0.20;;
25435;SDS011;13363;52.772;-3.890;2022-12-18T16:56:08;0.53;;;0.30;;
25435;SDS011;13363;52.772;-3.890;2022-12-18T16:58:34;0.60;;;0.33;;
25435;SDS011;13363;52.772;-3.890;2022-12-18T17:01:00;0.20;;;0.20;;
25435;SDS011;13363;52.772;-3.890;2022-12-18T17:03:26;0.30;;;0.30;;
25435;SDS011;13363;52.772;-3.890;2022-12-18T17:05:52;0.20;;;0.20;;
25435;SDS011;13363;52.772;-3.890;2022-12-18T17:08:18;0.30;;;0.30;;
25435;SDS011;13363;52.772;-3.890;2022-12-18T17:10:44;0.20;;;0.20;;
25435;SDS011;13363;52.772;-3.890;2022-12-18T17:13:10;0.33;;;0.33;;
25435;SDS011;13363;52.772;-3.890;2022-12-18T17:15:36;0.30;;;0.30;;
25435;SDS011;13363;52.772;-3.890;2022-12-18T17:18:02;0.37;;;0.37;;